createdAt,value
2023-02-14T00:00:15.387Z,8.43
2023-02-14T00:05:45.813Z,2.57
2023-02-14T00:08:16.401Z,9.30
2023-02-14T00:10:45.537Z,9.30
2023-02-14T00:13:19.146Z,3.60
2023-02-14T00:15:48.796Z,3.50
2023-02-14T00:18:22.025Z,7.20
2023-02-14T00:23:35.780Z,7.30
2023-02-14T00:26:03.751Z,11.90
2023-02-14T00:28:33.831Z,6.27
2023-02-14T00:31:13.075Z,5.90
2023-02-14T00:33:56.032Z,1.83
2023-02-14T00:36:26.554Z,7.97
2023-02-14T00:38:59.165Z,10.27
2023-02-14T00:41:29.745Z,5.13
2023-02-14T00:44:06.183Z,4.43
2023-02-14T00:49:21.304Z,4.40
2023-02-14T00:51:52.147Z,5.10
2023-02-14T00:54:25.463Z,4.57
2023-02-14T00:59:40.361Z,1.73
2023-02-14T01:02:10.985Z,2.60
2023-02-14T01:04:44.798Z,9.47
2023-02-14T01:07:16.537Z,7.80
2023-02-14T01:09:47.538Z,2.17
2023-02-14T01:12:18.967Z,6.97
2023-02-14T01:14:49.168Z,5.40
2023-02-14T01:17:23.186Z,1.90
2023-02-14T01:20:00.233Z,3.50
2023-02-14T01:22:30.949Z,3.23
2023-02-14T01:25:08.421Z,8.77
2023-02-14T01:27:38.852Z,3.77
2023-02-14T01:30:16.755Z,5.20
2023-02-14T01:33:03.548Z,5.87
2023-02-14T01:35:48.144Z,11.07
2023-02-14T01:38:27.858Z,4.03
2023-02-14T01:41:11.780Z,4.20
2023-02-14T01:44:05.092Z,5.83
2023-02-14T01:46:47.025Z,8.00
2023-02-14T01:49:43.053Z,5.30
2023-02-14T01:52:21.040Z,8.77
2023-02-14T01:55:05.699Z,8.23
2023-02-14T01:58:19.250Z,5.83
2023-02-14T02:01:02.232Z,5.28
2023-02-14T02:03:48.815Z,8.13
2023-02-14T02:06:34.309Z,5.40
2023-02-14T02:09:45.878Z,10.23
2023-02-14T02:12:29.204Z,4.67
2023-02-14T02:15:07.218Z,11.17
2023-02-14T02:18:09.350Z,8.07
2023-02-14T02:21:22.348Z,4.03
2023-02-14T02:24:14.939Z,9.60
2023-02-14T02:27:25.964Z,7.63
2023-02-14T02:30:21.078Z,11.30
2023-02-14T02:33:18.879Z,13.13
2023-02-14T02:36:21.813Z,11.07
2023-02-14T02:39:37.920Z,14.90
2023-02-14T02:43:15.150Z,6.27
2023-02-14T02:46:12.260Z,9.17
2023-02-14T02:49:04.801Z,9.30
2023-02-14T02:52:02.756Z,8.53
2023-02-14T02:54:48.694Z,10.10
2023-02-14T02:57:38.165Z,7.60
2023-02-14T03:00:12.936Z,8.87
2023-02-14T03:03:08.578Z,8.77
2023-02-14T03:05:46.646Z,15.20
2023-02-14T03:08:23.478Z,9.63
2023-02-14T03:10:52.230Z,2.53
2023-02-14T03:13:49.216Z,12.73
2023-02-14T03:16:42.131Z,9.03
2023-02-14T03:20:08.953Z,6.70
2023-02-14T03:23:07.442Z,7.20
2023-02-14T03:26:31.764Z,10.07
2023-02-14T03:32:47.628Z,12.97
2023-02-14T03:35:56.484Z,5.50
2023-02-14T03:38:51.557Z,10.33
2023-02-14T03:41:27.643Z,9.73
2023-02-14T03:44:00.904Z,11.70
2023-02-14T03:46:48.126Z,14.23
2023-02-14T03:49:23.277Z,7.70
2023-02-14T03:52:07.439Z,12.73
2023-02-14T03:54:37.244Z,6.77
2023-02-14T03:57:20.666Z,8.40
2023-02-14T04:00:11.050Z,7.10
2023-02-14T04:02:46.663Z,4.67
2023-02-14T04:05:28.953Z,3.80
2023-02-14T04:08:03.101Z,8.07
2023-02-14T04:10:36.786Z,11.53
2023-02-14T04:13:05.997Z,10.83
2023-02-14T04:18:40.223Z,9.73
2023-02-14T04:21:17.137Z,10.40
2023-02-14T04:23:46.323Z,16.30
2023-02-14T04:26:27.214Z,7.80
2023-02-14T04:28:58.230Z,7.18
2023-02-14T04:31:28.334Z,8.93
2023-02-14T04:34:05.445Z,16.43
2023-02-14T04:36:36.392Z,15.97
2023-02-14T04:42:01.285Z,12.00
2023-02-14T04:44:31.187Z,8.97
2023-02-14T04:47:05.533Z,12.27
2023-02-14T04:52:20.921Z,8.60
2023-02-14T04:54:52.385Z,7.40
2023-02-14T04:57:22.727Z,10.15
2023-02-14T05:00:05.637Z,11.83
2023-02-14T05:02:49.295Z,6.07
2023-02-14T05:05:20.724Z,4.27
2023-02-14T05:07:51.109Z,4.95
2023-02-14T05:10:22.637Z,6.83
2023-02-14T05:12:53.235Z,8.88
2023-02-14T05:18:02.962Z,6.57
2023-02-14T05:20:40.430Z,6.00
2023-02-14T05:23:16.719Z,8.70
2023-02-14T05:25:50.626Z,6.67
2023-02-14T05:28:25.817Z,7.00
2023-02-14T05:30:59.739Z,7.83
2023-02-14T05:33:30.951Z,7.90
2023-02-14T05:36:11.591Z,5.57
2023-02-14T05:38:40.843Z,7.77
2023-02-14T05:41:13.596Z,11.73
2023-02-14T05:43:43.991Z,3.83
2023-02-14T05:46:21.534Z,8.93
2023-02-14T05:48:52.307Z,6.90
2023-02-14T05:51:20.075Z,17.63
2023-02-14T05:53:48.682Z,3.50
2023-02-14T05:56:20.007Z,7.30
2023-02-14T05:58:56.346Z,24.05
2023-02-14T06:01:29.705Z,13.70
2023-02-14T06:04:00.767Z,6.00
2023-02-14T06:06:36.675Z,9.88
2023-02-14T06:09:07.343Z,10.03
2023-02-14T06:11:46.136Z,8.23
2023-02-14T06:14:16.477Z,16.03
2023-02-14T06:16:48.600Z,14.23
2023-02-14T06:19:21.334Z,15.73
2023-02-14T06:22:01.597Z,3.90
2023-02-14T06:24:29.781Z,10.73
2023-02-14T06:27:13.745Z,18.50
2023-02-14T06:29:47.386Z,8.40
2023-02-14T06:32:21.983Z,13.10
2023-02-14T06:34:53.483Z,10.17
2023-02-14T06:37:27.136Z,9.43
2023-02-14T06:39:58.306Z,19.53
2023-02-14T06:42:28.261Z,8.80
2023-02-14T06:45:01.699Z,5.83
2023-02-14T06:47:34.893Z,11.97
2023-02-14T06:50:19.901Z,11.60
2023-02-14T06:52:52.685Z,6.43
2023-02-14T06:55:23.338Z,25.13
2023-02-14T06:57:59.823Z,19.63
2023-02-14T07:00:50.507Z,28.57
2023-02-14T07:03:24.975Z,17.42
2023-02-14T07:05:56.668Z,10.43
2023-02-14T07:08:34.338Z,25.73
2023-02-14T07:11:15.908Z,11.47
2023-02-14T07:13:49.181Z,10.00
2023-02-14T07:16:21.271Z,9.67
2023-02-14T07:18:58.218Z,6.60
2023-02-14T07:21:37.515Z,8.37
2023-02-14T07:24:13.874Z,13.87
2023-02-14T07:26:44.123Z,10.13
2023-02-14T07:29:15.857Z,9.80
2023-02-14T07:31:46.300Z,11.20
2023-02-14T07:34:17.474Z,11.97
2023-02-14T07:36:48.682Z,15.97
2023-02-14T07:39:25.080Z,11.10
2023-02-14T07:41:58.491Z,23.13
2023-02-14T07:44:30.574Z,16.13
2023-02-14T07:47:02.397Z,23.73
2023-02-14T07:52:13.889Z,16.37
2023-02-14T07:54:42.444Z,14.60
2023-02-14T07:57:11.931Z,14.60
2023-02-14T08:02:39.692Z,10.63
2023-02-14T08:05:23.564Z,15.43
2023-02-14T08:08:03.741Z,14.50
2023-02-14T08:10:33.999Z,27.10
2023-02-14T08:13:03.712Z,8.27
2023-02-14T08:15:57.021Z,20.27
2023-02-14T08:18:32.534Z,13.37
2023-02-14T08:21:03.335Z,13.53
2023-02-14T08:23:37.698Z,17.73
2023-02-14T08:26:08.386Z,13.93
2023-02-14T08:28:40.265Z,9.27
2023-02-14T08:33:47.113Z,10.43
2023-02-14T08:36:17.802Z,14.30
2023-02-14T08:38:49.364Z,8.50
2023-02-14T08:41:20.867Z,17.20
2023-02-14T08:43:53.145Z,16.77
2023-02-14T08:49:12.278Z,20.77
2023-02-14T08:51:44.491Z,15.20
2023-02-14T08:54:18.616Z,10.27
2023-02-14T08:56:54.560Z,17.43
2023-02-14T08:59:34.617Z,16.93
2023-02-14T09:02:18.895Z,28.53
2023-02-14T09:04:53.069Z,19.63
2023-02-14T09:07:26.828Z,23.57
2023-02-14T09:12:46.966Z,20.33
2023-02-14T09:15:29.976Z,22.23
2023-02-14T09:18:07.904Z,36.27
2023-02-14T09:20:37.654Z,18.50
2023-02-14T09:23:08.442Z,28.17
2023-02-14T09:25:51.042Z,31.20
2023-02-14T09:28:21.431Z,22.63
2023-02-14T09:30:56.721Z,25.00
2023-02-14T09:33:37.673Z,20.37
2023-02-14T09:36:27.021Z,18.90
2023-02-14T09:38:57.640Z,11.23
2023-02-14T09:41:47.539Z,10.97
2023-02-14T09:44:46.965Z,10.80
2023-02-14T09:47:22.024Z,24.13
2023-02-14T09:49:53.123Z,15.07
2023-02-14T09:52:45.490Z,24.98
2023-02-14T09:58:41.620Z,21.00
2023-02-14T10:01:35.182Z,18.77
2023-02-14T10:04:42.254Z,9.87
2023-02-14T10:07:54.877Z,11.00
2023-02-14T10:13:28.154Z,16.20
2023-02-14T10:16:04.469Z,9.97
2023-02-14T10:19:22.956Z,14.20
2023-02-14T10:22:12.172Z,10.57
2023-02-14T10:25:00.496Z,10.70
2023-02-14T10:27:46.978Z,8.93
2023-02-14T10:30:26.203Z,14.33
2023-02-14T10:33:19.994Z,17.13
2023-02-14T10:36:08.274Z,8.33
2023-02-14T10:38:50.893Z,14.13
2023-02-14T10:41:54.445Z,7.27
2023-02-14T10:44:43.352Z,8.67
2023-02-14T10:47:53.653Z,8.70
2023-02-14T10:50:56.060Z,12.73
2023-02-14T10:56:35.435Z,8.25
2023-02-14T10:59:36.474Z,8.37
2023-02-14T11:02:18.526Z,12.73
2023-02-14T11:04:49.058Z,8.90
2023-02-14T11:07:34.155Z,13.05
2023-02-14T11:10:22.220Z,10.53
2023-02-14T11:12:50.398Z,4.13
2023-02-14T11:18:36.136Z,12.60
2023-02-14T11:21:25.416Z,18.27
2023-02-14T11:23:56.942Z,16.03
2023-02-14T11:26:38.564Z,10.10
2023-02-14T11:29:31.126Z,9.45
2023-02-14T11:32:12.343Z,7.77
2023-02-14T11:35:08.843Z,7.50
2023-02-14T11:37:57.100Z,11.10
2023-02-14T11:40:59.561Z,6.17
2023-02-14T11:43:40.223Z,9.97
2023-02-14T11:46:28.974Z,14.00
2023-02-14T11:49:27.517Z,10.80
2023-02-14T11:51:59.233Z,11.50
2023-02-14T11:54:52.227Z,14.77
2023-02-14T11:57:41.769Z,10.70
2023-02-14T12:00:30.152Z,11.97
2023-02-14T12:03:01.878Z,11.20
2023-02-14T12:06:03.523Z,7.47
2023-02-14T12:08:42.496Z,7.70
2023-02-14T12:11:26.859Z,11.73
2023-02-14T12:13:58.384Z,8.60
2023-02-14T12:16:53.923Z,6.30
2023-02-14T12:19:53.718Z,14.87
2023-02-14T12:22:54.788Z,11.87
2023-02-14T12:25:48.641Z,10.23
2023-02-14T12:28:28.378Z,10.37
2023-02-14T12:30:57.600Z,11.67
2023-02-14T12:33:30.605Z,7.23
2023-02-14T12:36:55.302Z,7.23
2023-02-14T12:39:51.838Z,10.20
2023-02-14T12:43:02.086Z,7.63
2023-02-14T12:46:02.435Z,11.83
2023-02-14T12:48:59.646Z,7.03
2023-02-14T12:52:06.182Z,9.03
2023-02-14T12:58:31.862Z,9.87
2023-02-14T13:01:29.238Z,7.73
2023-02-14T13:04:28.945Z,12.97
2023-02-14T13:07:41.354Z,7.63
2023-02-14T13:10:35.550Z,8.20
2023-02-14T13:14:05.407Z,7.70
2023-02-14T13:17:00.355Z,9.23
2023-02-14T13:20:07.728Z,5.73
2023-02-14T13:22:44.967Z,13.43
2023-02-14T13:25:53.076Z,4.63
2023-02-14T13:28:26.173Z,7.30
2023-02-14T13:30:58.814Z,8.23
2023-02-14T13:33:35.048Z,16.10
2023-02-14T13:36:11.172Z,8.40
2023-02-14T13:38:50.519Z,12.67
2023-02-14T13:41:32.370Z,11.10
2023-02-14T13:46:53.319Z,7.70
2023-02-14T13:49:45.622Z,7.67
2023-02-14T13:52:19.541Z,14.40
2023-02-14T13:54:59.954Z,8.73
2023-02-14T13:57:33.676Z,6.03
2023-02-14T14:00:22.988Z,3.03
2023-02-14T14:02:58.211Z,3.93
2023-02-14T14:05:51.437Z,6.33
2023-02-14T14:08:32.667Z,13.87
2023-02-14T14:11:07.693Z,7.70
2023-02-14T14:14:17.514Z,6.07
2023-02-14T14:17:00.963Z,7.50
2023-02-14T14:19:28.648Z,6.73
2023-02-14T14:22:27.887Z,9.67
2023-02-14T14:25:15.582Z,10.47
2023-02-14T14:27:57.079Z,11.87
2023-02-14T14:30:35.239Z,5.05
2023-02-14T14:33:49.707Z,5.50
2023-02-14T14:36:26.512Z,5.47
2023-02-14T14:38:57.282Z,5.97
2023-02-14T14:44:08.313Z,10.02
2023-02-14T14:46:44.851Z,7.43
2023-02-14T14:49:28.899Z,4.17
2023-02-14T14:52:08.489Z,7.07
2023-02-14T14:54:42.424Z,20.97
2023-02-14T14:57:32.197Z,15.40
2023-02-14T15:00:23.198Z,35.45
2023-02-14T15:03:20.446Z,20.30
2023-02-14T15:05:51.078Z,11.43
2023-02-14T15:08:29.951Z,9.30
2023-02-14T15:11:06.162Z,3.47
2023-02-14T15:13:53.217Z,5.13
2023-02-14T15:16:43.634Z,6.77
2023-02-14T15:22:31.268Z,7.47
2023-02-14T15:25:02.024Z,2.17
2023-02-14T15:27:47.702Z,9.50
2023-02-14T15:30:45.366Z,10.37
2023-02-14T15:33:15.860Z,8.30
2023-02-14T15:35:49.936Z,5.40
2023-02-14T15:38:19.195Z,12.67
2023-02-14T15:40:53.216Z,15.77
2023-02-14T15:43:36.234Z,6.53
2023-02-14T15:46:38.594Z,13.90
2023-02-14T15:51:41.869Z,8.47
2023-02-14T15:54:26.058Z,5.90
2023-02-14T15:57:07.432Z,4.13
2023-02-14T15:59:43.719Z,13.85
2023-02-14T16:02:41.208Z,2.13
2023-02-14T16:05:25.730Z,6.43
2023-02-14T16:08:28.646Z,1.80
2023-02-14T16:11:19.080Z,8.47
2023-02-14T16:13:54.948Z,3.40
2023-02-14T16:16:28.821Z,5.70
2023-02-14T16:19:12.786Z,6.57
2023-02-14T16:21:52.002Z,2.43
2023-02-14T16:24:24.502Z,4.67
2023-02-14T16:26:55.748Z,4.35
2023-02-14T16:29:28.227Z,3.15
2023-02-14T16:32:15.803Z,5.00
2023-02-14T16:34:52.859Z,6.40
2023-02-14T16:37:34.165Z,9.70
2023-02-14T16:40:08.689Z,6.10
2023-02-14T16:42:41.032Z,7.47
2023-02-14T16:45:18.514Z,5.70
2023-02-14T16:47:50.778Z,6.53
2023-02-14T16:50:26.688Z,14.63
2023-02-14T16:52:58.798Z,9.13
2023-02-14T16:55:33.424Z,4.60
2023-02-14T16:58:04.008Z,8.80
2023-02-14T17:00:35.126Z,7.57
2023-02-14T17:03:18.741Z,7.75
2023-02-14T17:05:58.345Z,5.07
2023-02-14T17:08:29.146Z,8.60
2023-02-14T17:10:59.165Z,15.27
2023-02-14T17:13:35.263Z,11.83
2023-02-14T17:16:18.042Z,10.47
2023-02-14T17:18:49.564Z,15.40
2023-02-14T17:21:24.825Z,9.98
2023-02-14T17:23:56.744Z,4.67
2023-02-14T17:29:12.917Z,5.83
2023-02-14T17:31:44.785Z,7.87
2023-02-14T17:34:15.416Z,6.23
2023-02-14T17:36:49.389Z,9.60
2023-02-14T17:39:23.440Z,6.80
2023-02-14T17:41:58.940Z,12.77
2023-02-14T17:44:32.975Z,6.23
2023-02-14T17:47:19.336Z,5.27
2023-02-14T17:50:03.278Z,6.50
2023-02-14T17:52:34.452Z,12.20
2023-02-14T17:55:04.865Z,6.20
2023-02-14T17:57:35.641Z,7.53
2023-02-14T18:00:12.144Z,12.93
2023-02-14T18:02:48.381Z,13.07
2023-02-14T18:05:32.190Z,20.40
2023-02-14T18:08:05.292Z,10.93
2023-02-14T18:10:35.875Z,10.20
2023-02-14T18:13:06.856Z,12.60
2023-02-14T18:15:51.327Z,5.43
2023-02-14T18:18:26.043Z,4.83
2023-02-14T18:20:59.133Z,5.40
2023-02-14T18:23:38.002Z,6.50
2023-02-14T18:26:11.089Z,7.13
2023-02-14T18:28:41.130Z,13.33
2023-02-14T18:31:27.972Z,14.03
2023-02-14T18:34:03.798Z,13.70
2023-02-14T18:36:40.858Z,17.77
2023-02-14T18:39:12.018Z,17.00
2023-02-14T18:41:42.590Z,31.42
2023-02-14T18:44:13.617Z,23.17
2023-02-14T18:46:46.788Z,17.70
2023-02-14T18:49:18.670Z,7.97
2023-02-14T18:52:01.887Z,23.33
2023-02-14T18:54:32.446Z,8.63
2023-02-14T18:57:03.805Z,20.97
2023-02-14T18:59:38.056Z,19.50
2023-02-14T19:02:08.530Z,13.93
2023-02-14T19:07:34.451Z,14.80
2023-02-14T19:10:06.240Z,15.03
2023-02-14T19:12:42.368Z,17.50
2023-02-14T19:15:19.140Z,7.23
2023-02-14T19:17:59.912Z,10.00
2023-02-14T19:20:30.515Z,19.57
2023-02-14T19:23:05.272Z,31.50
2023-02-14T19:25:37.822Z,67.90
2023-02-14T19:28:12.115Z,62.80
2023-02-14T19:30:43.460Z,61.20
2023-02-14T19:33:19.048Z,16.58
2023-02-14T19:35:55.850Z,15.70
2023-02-14T19:38:26.255Z,15.70
2023-02-14T19:40:56.857Z,20.57
2023-02-14T19:43:32.680Z,30.77
2023-02-14T19:46:21.821Z,24.57
2023-02-14T19:48:51.024Z,28.20
2023-02-14T19:51:29.017Z,31.20
2023-02-14T19:54:06.406Z,37.47
2023-02-14T19:56:36.772Z,31.30
2023-02-14T19:59:11.648Z,35.87
2023-02-14T20:01:48.046Z,21.87
2023-02-14T20:04:24.360Z,14.27
2023-02-14T20:06:55.891Z,5.67
2023-02-14T20:12:15.126Z,6.87
2023-02-14T20:14:57.334Z,4.20
2023-02-14T20:17:30.929Z,11.13
2023-02-14T20:20:05.051Z,17.90
2023-02-14T20:22:38.717Z,22.93
2023-02-14T20:25:16.031Z,20.77
2023-02-14T20:27:49.807Z,40.13
2023-02-14T20:30:26.953Z,25.37
2023-02-14T20:33:00.823Z,37.87
2023-02-14T20:35:49.185Z,31.67
2023-02-14T20:38:23.117Z,33.27
2023-02-14T20:40:51.706Z,25.00
2023-02-14T20:43:22.465Z,33.63
2023-02-14T20:46:07.705Z,30.97
2023-02-14T20:48:44.096Z,21.80
2023-02-14T20:51:33.412Z,40.57
2023-02-14T20:54:11.774Z,40.43
2023-02-14T20:56:45.511Z,32.00
2023-02-14T20:59:22.290Z,39.80
2023-02-14T21:01:52.319Z,36.03
2023-02-14T21:04:23.167Z,26.93
2023-02-14T21:07:05.866Z,29.73
2023-02-14T21:09:40.092Z,26.00
2023-02-14T21:12:13.499Z,24.07
2023-02-14T21:14:54.838Z,21.93
2023-02-14T21:17:28.590Z,23.27
2023-02-14T21:20:08.893Z,15.50
2023-02-14T21:22:44.624Z,10.50
2023-02-14T21:25:23.786Z,23.83
2023-02-14T21:28:02.739Z,24.85
2023-02-14T21:30:33.338Z,18.87
2023-02-14T21:33:03.487Z,21.00
2023-02-14T21:35:39.972Z,17.03
2023-02-14T21:38:10.571Z,29.03
2023-02-14T21:40:47.205Z,33.33
2023-02-14T21:43:17.688Z,14.00
2023-02-14T21:45:59.256Z,15.83
2023-02-14T21:48:48.475Z,17.90
2023-02-14T21:51:18.975Z,23.60
2023-02-14T21:56:26.254Z,23.30
2023-02-14T21:59:05.094Z,22.40
2023-02-14T22:01:36.903Z,9.47
2023-02-14T22:06:48.289Z,6.63
2023-02-14T22:09:19.445Z,9.03
2023-02-14T22:11:53.866Z,14.98
2023-02-14T22:14:30.566Z,7.10
2023-02-14T22:16:59.270Z,7.07
2023-02-14T22:19:29.247Z,8.37
2023-02-14T22:22:03.030Z,14.87
2023-02-14T22:24:37.180Z,15.00
2023-02-14T22:27:07.588Z,13.60
2023-02-14T22:29:37.783Z,10.80
2023-02-14T22:32:08.693Z,19.63
2023-02-14T22:34:42.368Z,18.55
2023-02-14T22:37:20.211Z,6.40
2023-02-14T22:39:50.854Z,17.60
2023-02-14T22:42:22.089Z,12.47
2023-02-14T22:44:58.667Z,10.95
2023-02-14T22:47:31.163Z,17.10
2023-02-14T22:50:02.164Z,18.08
2023-02-14T22:52:32.791Z,17.13
2023-02-14T22:55:04.844Z,7.80
2023-02-14T22:57:33.857Z,18.17
2023-02-14T23:00:12.756Z,14.63
2023-02-14T23:02:50.533Z,9.53
2023-02-14T23:08:07.518Z,15.57
2023-02-14T23:10:39.058Z,5.03
2023-02-14T23:13:25.029Z,5.60
2023-02-14T23:16:16.917Z,11.30
2023-02-14T23:19:05.081Z,4.60
2023-02-14T23:21:52.911Z,6.83
2023-02-14T23:24:23.834Z,7.53
2023-02-14T23:26:54.912Z,13.07
2023-02-14T23:29:30.428Z,14.02
2023-02-14T23:32:10.211Z,5.57
2023-02-14T23:34:41.992Z,13.57
2023-02-14T23:37:31.916Z,5.97
2023-02-14T23:40:08.525Z,12.77
2023-02-14T23:42:51.352Z,19.37
2023-02-14T23:45:37.895Z,8.57
2023-02-14T23:48:09.474Z,6.20
2023-02-14T23:50:53.420Z,7.80
2023-02-14T23:53:27.021Z,17.77
2023-02-14T23:55:57.493Z,12.10
2023-02-14T23:58:28.833Z,6.20
